Naugatuck, Connecticut
Current Conditions -  °F | °C
As of 3:50 PM on Tuesday 21 Oct 2014 (Local Time) from KOXC Reporting Station
Overcast Overcast  
Wind Chill: 63°   Ceiling: 4400
Heat Index: 63°   Visibility: 10mi
Dew Point: 45°   Wind: 7mph
Humidity: 52%   Direction: 160°SSE
Pressure: 29.86"   Gusts: NA
Location:  41.49°N, 73.05°W
Report Text: KOXC 211950Z 16006KT 10SM BKN044 OVC100 17/07 A2986
Loading
Personal Weather Stations






























Interactive Weather Map
Tropical Storm Tracking
New forecast layout! Learn more

10-Day Weather Forecast

Advertisements
Track Severe Weather on mobile